Terminal Aerodrome Forecast
Issued by NWS Mt. Holly, NJ

Home | Current Version | Previous Version | Text Only | Print | Product List | Glossary On
Versions: 1 2 3 4 5 6 7 8 9 10 11 12 13 14 15 16
712
FTUS41 KPHI 091739
TAFABE
TAF
KABE 091739Z 0918/1018 31014G23KT P6SM BKN050
     FM092200 29009KT P6SM SCT050
     FM100500 28005KT P6SM BKN060
     FM101200 17006KT P6SM SCT040 BKN200=

USA.gov is the U.S. government's official web portal to all federal, state and local government web resources and services.